createdAt,value
2023-02-09T00:01:32.614Z,13.27
2023-02-09T00:04:02.798Z,13.77
2023-02-09T00:06:33.349Z,14.03
2023-02-09T00:09:02.529Z,14.10
2023-02-09T00:11:50.240Z,15.37
2023-02-09T00:14:21.752Z,13.30
2023-02-09T00:16:51.163Z,16.23
2023-02-09T00:19:20.256Z,12.63
2023-02-09T00:21:50.178Z,12.10
2023-02-09T00:24:18.396Z,14.17
2023-02-09T00:26:47.270Z,15.13
2023-02-09T00:29:16.252Z,15.43
2023-02-09T00:31:44.674Z,14.90
2023-02-09T00:34:16.452Z,16.20
2023-02-09T00:36:44.552Z,14.37
2023-02-09T00:39:14.067Z,13.10
2023-02-09T00:41:59.490Z,16.43
2023-02-09T00:44:28.026Z,16.20
2023-02-09T00:46:56.923Z,16.70
2023-02-09T00:49:25.615Z,14.60
2023-02-09T00:51:53.927Z,14.60
2023-02-09T00:54:23.732Z,16.53
2023-02-09T00:56:51.973Z,15.00
2023-02-09T00:59:20.032Z,15.70
2023-02-09T01:01:48.728Z,14.60
2023-02-09T01:04:16.846Z,16.57
2023-02-09T01:06:45.342Z,16.20
2023-02-09T01:09:13.430Z,14.70
2023-02-09T01:11:43.335Z,14.27
2023-02-09T01:14:12.015Z,15.93
2023-02-09T01:16:40.417Z,15.17
2023-02-09T01:19:08.513Z,16.63
2023-02-09T01:21:36.853Z,15.60
2023-02-09T01:24:05.325Z,11.83
2023-02-09T01:26:33.463Z,14.43
2023-02-09T01:29:02.931Z,14.47
2023-02-09T01:31:33.910Z,15.03
2023-02-09T01:34:04.860Z,15.00
2023-02-09T01:36:34.595Z,14.57
2023-02-09T01:39:04.792Z,14.60
2023-02-09T01:41:34.521Z,15.67
2023-02-09T01:44:07.631Z,15.10
2023-02-09T01:46:37.770Z,13.50
2023-02-09T01:49:09.606Z,16.00
2023-02-09T01:51:43.580Z,12.03
2023-02-09T01:54:17.934Z,16.17
2023-02-09T01:56:49.829Z,13.03
2023-02-09T01:59:20.243Z,14.13
2023-02-09T02:01:48.926Z,15.60
2023-02-09T02:04:17.232Z,14.77
2023-02-09T02:06:45.523Z,14.80
2023-02-09T02:09:16.661Z,15.17
2023-02-09T02:11:48.872Z,17.77
2023-02-09T02:14:31.035Z,12.53
2023-02-09T02:17:10.430Z,16.50
2023-02-09T02:20:02.135Z,14.90
2023-02-09T02:22:45.368Z,15.20
2023-02-09T02:25:47.002Z,15.67
2023-02-09T02:28:40.276Z,15.37
2023-02-09T02:31:47.994Z,16.47
2023-02-09T02:34:25.464Z,15.20
2023-02-09T02:37:07.753Z,16.87
2023-02-09T02:39:42.120Z,14.33
2023-02-09T02:42:32.569Z,11.10
2023-02-09T02:45:07.069Z,11.40
2023-02-09T02:47:37.964Z,14.80
2023-02-09T02:50:13.040Z,15.63
2023-02-09T02:52:44.798Z,12.13
2023-02-09T02:55:17.918Z,12.87
2023-02-09T02:57:51.017Z,13.43
2023-02-09T03:00:24.048Z,12.80
2023-02-09T03:02:55.570Z,12.93
2023-02-09T03:05:27.463Z,12.53
2023-02-09T03:07:55.596Z,12.30
2023-02-09T03:10:30.141Z,13.40
2023-02-09T03:13:09.355Z,14.57
2023-02-09T03:15:48.903Z,12.47
2023-02-09T03:18:26.538Z,14.97
2023-02-09T03:20:59.820Z,14.40
2023-02-09T03:23:34.939Z,16.30
2023-02-09T03:26:09.346Z,15.47
2023-02-09T03:28:40.882Z,13.97
2023-02-09T03:31:10.563Z,15.10
2023-02-09T03:33:40.449Z,18.20
2023-02-09T03:36:15.928Z,8.03
2023-02-09T03:38:44.022Z,12.03
2023-02-09T03:41:12.711Z,12.63
2023-02-09T03:43:58.309Z,13.73
2023-02-09T03:46:26.672Z,11.57
2023-02-09T03:48:54.780Z,15.37
2023-02-09T03:51:24.572Z,12.33
2023-02-09T03:53:52.685Z,12.03
2023-02-09T03:56:25.200Z,11.80
2023-02-09T03:58:53.791Z,13.17
2023-02-09T04:01:21.946Z,15.47
2023-02-09T04:03:50.263Z,15.57
2023-02-09T04:06:18.673Z,16.33
2023-02-09T04:08:48.305Z,12.67
2023-02-09T04:11:16.784Z,11.47
2023-02-09T04:13:44.861Z,12.47
2023-02-09T04:16:13.309Z,11.43
2023-02-09T04:18:41.454Z,12.93
2023-02-09T04:21:09.770Z,11.63
2023-02-09T04:23:37.948Z,11.63
2023-02-09T04:26:08.208Z,11.03
2023-02-09T04:28:36.526Z,13.73
2023-02-09T04:31:05.303Z,16.37
2023-02-09T04:33:33.434Z,15.20
2023-02-09T04:36:01.568Z,14.03
2023-02-09T04:38:30.231Z,16.23
2023-02-09T04:41:01.204Z,15.10
2023-02-09T04:43:31.072Z,14.80
2023-02-09T04:45:59.271Z,9.67
2023-02-09T04:48:28.904Z,13.40
2023-02-09T04:50:57.923Z,13.00
2023-02-09T04:53:26.075Z,12.70
2023-02-09T04:55:54.358Z,10.80
2023-02-09T04:58:40.449Z,16.00
2023-02-09T05:01:13.466Z,12.63
2023-02-09T05:03:42.612Z,14.80
2023-02-09T05:06:10.961Z,13.73
2023-02-09T05:08:39.103Z,13.30
2023-02-09T05:11:07.321Z,11.57
2023-02-09T05:13:35.677Z,11.30
2023-02-09T05:16:07.507Z,13.93
2023-02-09T05:18:37.370Z,10.97
2023-02-09T05:21:05.740Z,14.57
2023-02-09T05:23:34.774Z,13.60
2023-02-09T05:26:02.864Z,14.17
2023-02-09T05:28:31.395Z,13.87
2023-02-09T05:30:59.509Z,13.47
2023-02-09T05:33:28.310Z,13.63
2023-02-09T05:35:57.838Z,13.60
2023-02-09T05:38:25.980Z,12.07
2023-02-09T05:40:54.369Z,12.37
2023-02-09T05:43:22.466Z,10.73
2023-02-09T05:45:50.920Z,13.27
2023-02-09T05:48:19.035Z,12.73
2023-02-09T05:50:48.804Z,12.10
2023-02-09T05:53:18.278Z,8.33
2023-02-09T05:55:47.847Z,13.73
2023-02-09T05:58:15.960Z,10.17
2023-02-09T06:00:44.657Z,9.90
2023-02-09T06:03:13.211Z,11.37
2023-02-09T06:05:41.316Z,12.97
2023-02-09T06:08:09.919Z,10.93
2023-02-09T06:10:39.787Z,13.53
2023-02-09T06:13:07.880Z,10.70
2023-02-09T06:15:36.344Z,10.67
2023-02-09T06:18:04.900Z,12.63
2023-02-09T06:20:33.113Z,12.33
2023-02-09T06:23:01.221Z,13.57
2023-02-09T06:25:29.384Z,13.27
2023-02-09T06:27:59.237Z,11.60
2023-02-09T06:30:27.682Z,14.17
2023-02-09T06:32:55.761Z,17.43
2023-02-09T06:35:23.954Z,15.33
2023-02-09T06:37:52.256Z,18.33
2023-02-09T06:40:21.274Z,17.00
2023-02-09T06:42:49.703Z,16.50
2023-02-09T06:45:20.053Z,13.37
2023-02-09T06:47:48.154Z,9.97
2023-02-09T06:50:20.158Z,14.00
2023-02-09T06:52:48.633Z,10.53
2023-02-09T06:55:16.733Z,11.00
2023-02-09T06:57:45.269Z,12.27
2023-02-09T07:00:15.502Z,14.33
2023-02-09T07:02:45.960Z,11.13
2023-02-09T07:05:15.288Z,12.73
2023-02-09T07:07:44.318Z,11.23
2023-02-09T07:10:14.655Z,11.23
2023-02-09T07:12:43.833Z,14.13
2023-02-09T07:15:13.516Z,11.60
2023-02-09T07:17:42.363Z,14.00
2023-02-09T07:20:13.954Z,13.23
2023-02-09T07:22:42.238Z,14.07
2023-02-09T07:25:10.831Z,15.27
2023-02-09T07:27:39.085Z,13.87
2023-02-09T07:30:07.882Z,16.37
2023-02-09T07:32:37.980Z,18.23
2023-02-09T07:35:06.691Z,15.93
2023-02-09T07:37:37.518Z,16.53
2023-02-09T07:40:05.879Z,18.40
2023-02-09T07:42:34.278Z,18.60
2023-02-09T07:45:02.411Z,19.83
2023-02-09T07:47:30.517Z,17.53
2023-02-09T07:49:58.804Z,16.00
2023-02-09T07:52:26.912Z,14.17
2023-02-09T07:54:56.379Z,11.30
2023-02-09T07:57:24.566Z,10.43
2023-02-09T07:59:52.645Z,11.47
2023-02-09T08:02:29.396Z,11.53
2023-02-09T08:05:01.446Z,9.37
2023-02-09T08:07:29.976Z,9.37
2023-02-09T08:09:59.480Z,9.40
2023-02-09T08:12:44.469Z,9.00
2023-02-09T08:15:15.289Z,8.93
2023-02-09T08:17:44.036Z,9.10
2023-02-09T08:20:15.838Z,8.50
2023-02-09T08:22:47.924Z,8.90
2023-02-09T08:25:18.985Z,9.53
2023-02-09T08:27:48.116Z,8.90
2023-02-09T08:30:18.271Z,10.13
2023-02-09T08:32:46.406Z,9.67
2023-02-09T08:35:15.189Z,9.03
2023-02-09T08:37:43.565Z,9.30
2023-02-09T08:40:15.070Z,9.83
2023-02-09T08:42:44.599Z,11.47
2023-02-09T08:45:12.913Z,9.67
2023-02-09T08:47:41.267Z,10.40
2023-02-09T08:50:10.628Z,9.80
2023-02-09T08:52:38.773Z,7.33
2023-02-09T08:55:07.808Z,7.30
2023-02-09T08:57:43.880Z,10.07
2023-02-09T09:00:15.930Z,7.93
2023-02-09T09:02:44.049Z,7.43
2023-02-09T09:05:12.448Z,5.50
2023-02-09T09:07:40.560Z,6.53
2023-02-09T09:10:09.892Z,6.50
2023-02-09T09:12:38.845Z,6.50
2023-02-09T09:15:07.297Z,5.30
2023-02-09T09:17:36.824Z,3.50
2023-02-09T09:20:07.054Z,2.80
2023-02-09T09:22:35.179Z,4.03
2023-02-09T09:25:03.463Z,5.15
2023-02-09T09:27:32.775Z,4.30
2023-02-09T09:30:00.899Z,3.75
2023-02-09T09:32:29.604Z,2.70
2023-02-09T09:35:00.295Z,2.90
2023-02-09T09:37:28.458Z,2.28
2023-02-09T09:39:57.131Z,5.70
2023-02-09T09:42:28.904Z,6.28
2023-02-09T09:44:57.284Z,5.80
2023-02-09T09:47:38.213Z,5.22
2023-02-09T09:50:14.190Z,2.15
2023-02-09T09:52:44.483Z,2.35
2023-02-09T09:55:23.355Z,5.97
2023-02-09T09:57:54.129Z,5.38
2023-02-09T10:00:24.924Z,5.05
2023-02-09T10:02:53.449Z,4.80
2023-02-09T10:05:25.705Z,5.30
2023-02-09T10:08:00.435Z,5.85
2023-02-09T10:10:39.140Z,5.60
2023-02-09T10:13:14.703Z,5.05
2023-02-09T10:15:43.204Z,5.93
2023-02-09T10:18:17.212Z,5.70
2023-02-09T10:20:49.220Z,6.40
2023-02-09T10:23:23.725Z,5.50
2023-02-09T10:25:59.875Z,4.38
2023-02-09T10:28:30.924Z,5.90
2023-02-09T10:31:02.026Z,3.55
2023-02-09T10:33:38.177Z,4.68
2023-02-09T10:36:21.011Z,4.85
2023-02-09T10:38:49.081Z,5.28
2023-02-09T10:41:18.023Z,3.20
2023-02-09T10:43:53.868Z,4.68
2023-02-09T10:46:22.933Z,5.00
2023-02-09T10:48:51.112Z,4.00
2023-02-09T10:51:29.382Z,2.40
2023-02-09T10:54:03.526Z,3.88
2023-02-09T10:56:43.887Z,5.18
2023-02-09T10:59:18.352Z,4.88
2023-02-09T11:01:56.100Z,4.97
2023-02-09T11:04:25.886Z,4.47
2023-02-09T11:06:58.738Z,4.85
2023-02-09T11:09:30.720Z,4.43
2023-02-09T11:11:59.111Z,5.05
2023-02-09T11:14:27.305Z,6.03
2023-02-09T11:17:13.592Z,4.63
2023-02-09T11:20:17.410Z,4.40
2023-02-09T11:23:03.585Z,4.30
2023-02-09T11:25:38.319Z,3.75
2023-02-09T11:28:26.032Z,4.88
2023-02-09T11:31:48.019Z,4.50
2023-02-09T11:34:54.390Z,5.28
2023-02-09T11:37:35.815Z,4.30
2023-02-09T11:40:21.185Z,4.18
2023-02-09T11:42:58.831Z,3.83
2023-02-09T11:45:33.602Z,4.95
2023-02-09T11:48:10.088Z,5.45
2023-02-09T11:50:50.696Z,3.13
2023-02-09T11:53:27.718Z,3.28
2023-02-09T11:55:59.692Z,1.50
2023-02-09T11:58:55.222Z,3.60
2023-02-09T12:01:38.242Z,4.20
2023-02-09T12:04:16.544Z,4.30
2023-02-09T12:06:47.931Z,3.15
2023-02-09T12:09:27.067Z,4.75
2023-02-09T12:12:06.272Z,4.28
2023-02-09T12:14:46.669Z,3.67
2023-02-09T12:17:18.778Z,4.10
2023-02-09T12:19:57.480Z,4.43
2023-02-09T12:22:58.508Z,4.85
2023-02-09T12:25:55.410Z,3.03
2023-02-09T12:28:47.790Z,3.47
2023-02-09T12:31:25.748Z,2.85
2023-02-09T12:34:21.480Z,4.22
2023-02-09T12:37:10.552Z,3.65
2023-02-09T12:39:38.756Z,2.80
2023-02-09T12:42:29.567Z,3.70
2023-02-09T12:45:02.517Z,4.05
2023-02-09T12:47:55.995Z,4.57
2023-02-09T12:50:37.029Z,4.47
2023-02-09T12:53:41.952Z,3.78
2023-02-09T12:56:32.238Z,1.75
2023-02-09T12:59:20.719Z,4.03
2023-02-09T13:02:13.788Z,3.53
2023-02-09T13:04:50.844Z,3.45
2023-02-09T13:07:33.956Z,4.60
2023-02-09T13:10:09.121Z,4.38
2023-02-09T13:12:43.879Z,2.25
2023-02-09T13:15:16.095Z,3.88
2023-02-09T13:17:58.573Z,4.25
2023-02-09T13:20:47.447Z,4.03
2023-02-09T13:23:24.085Z,3.05
2023-02-09T13:26:02.080Z,3.78
2023-02-09T13:28:30.729Z,3.85
2023-02-09T13:30:58.957Z,3.60
2023-02-09T13:33:38.898Z,4.10
2023-02-09T13:36:25.137Z,4.63
2023-02-09T13:38:53.845Z,3.13
2023-02-09T13:41:28.530Z,4.45
2023-02-09T13:43:57.168Z,2.53
2023-02-09T13:46:27.740Z,4.65
2023-02-09T13:49:12.169Z,5.30
2023-02-09T13:51:40.670Z,5.05
2023-02-09T13:54:09.118Z,2.60
2023-02-09T13:56:40.084Z,4.88
2023-02-09T13:59:08.542Z,4.35
2023-02-09T14:01:38.554Z,4.65
2023-02-09T14:04:13.034Z,4.85
2023-02-09T14:06:44.607Z,4.03
2023-02-09T14:09:17.090Z,4.80
2023-02-09T14:11:49.134Z,2.67
2023-02-09T14:14:21.411Z,2.58
2023-02-09T14:16:53.832Z,2.72
2023-02-09T14:19:28.870Z,2.03
2023-02-09T14:21:57.031Z,4.93
2023-02-09T14:24:25.993Z,5.03
2023-02-09T14:26:56.364Z,3.72
2023-02-09T14:29:26.851Z,5.10
2023-02-09T14:31:57.179Z,1.75
2023-02-09T14:34:31.400Z,3.53
2023-02-09T14:37:02.818Z,3.35
2023-02-09T14:39:32.167Z,3.75
2023-02-09T14:42:18.501Z,5.30
2023-02-09T14:44:48.622Z,2.03
2023-02-09T14:47:31.235Z,4.25
2023-02-09T14:50:01.298Z,4.35
2023-02-09T14:52:32.949Z,4.70
2023-02-09T14:55:05.005Z,4.90
2023-02-09T14:57:36.255Z,4.35
2023-02-09T15:00:16.809Z,4.97
2023-02-09T15:02:45.921Z,5.03
2023-02-09T15:05:15.801Z,3.55
2023-02-09T15:07:47.359Z,4.57
2023-02-09T15:10:22.716Z,4.47
2023-02-09T15:12:51.439Z,4.53
2023-02-09T15:15:21.038Z,4.25
2023-02-09T15:17:49.323Z,4.22
2023-02-09T15:20:21.415Z,2.35
2023-02-09T15:22:49.884Z,5.03
2023-02-09T15:25:18.690Z,4.55
2023-02-09T15:27:51.862Z,5.15
2023-02-09T15:30:22.805Z,4.70
2023-02-09T15:32:51.175Z,4.95
2023-02-09T15:35:23.196Z,4.80
2023-02-09T15:37:55.188Z,5.00
2023-02-09T15:40:45.659Z,5.32
2023-02-09T15:43:33.404Z,5.40
2023-02-09T15:46:19.516Z,5.47
2023-02-09T15:48:48.936Z,3.65
2023-02-09T15:51:18.895Z,5.38
2023-02-09T15:53:47.767Z,5.13
2023-02-09T15:56:16.364Z,4.25
2023-02-09T15:58:48.652Z,5.22
2023-02-09T16:01:18.732Z,5.15
2023-02-09T16:03:47.353Z,3.83
2023-02-09T16:06:20.355Z,5.00
2023-02-09T16:08:50.262Z,5.53
2023-02-09T16:11:21.738Z,1.35
2023-02-09T16:13:50.086Z,4.53
2023-02-09T16:16:18.529Z,4.72
2023-02-09T16:18:46.981Z,4.93
2023-02-09T16:21:24.740Z,5.85
2023-02-09T16:23:55.590Z,5.25
2023-02-09T16:26:24.817Z,6.13
2023-02-09T16:28:54.070Z,4.32
2023-02-09T16:31:23.059Z,4.72
2023-02-09T16:33:51.504Z,5.75
2023-02-09T16:36:23.650Z,4.55
2023-02-09T16:38:52.500Z,4.93
2023-02-09T16:41:39.389Z,5.18
2023-02-09T16:44:17.550Z,5.70
2023-02-09T16:46:47.053Z,4.55
2023-02-09T16:49:32.930Z,4.60
2023-02-09T16:52:07.815Z,5.20
2023-02-09T16:54:42.659Z,5.55
2023-02-09T16:57:15.707Z,5.05
2023-02-09T16:59:44.264Z,4.10
2023-02-09T17:02:37.681Z,5.05
2023-02-09T17:05:18.551Z,4.30
2023-02-09T17:07:54.952Z,5.35
2023-02-09T17:10:26.592Z,4.07
2023-02-09T17:12:54.827Z,5.70
2023-02-09T17:15:30.747Z,5.03
2023-02-09T17:18:02.810Z,5.15
2023-02-09T17:20:36.983Z,5.40
2023-02-09T17:23:06.990Z,6.00
2023-02-09T17:25:35.425Z,4.60
2023-02-09T17:28:03.589Z,5.60
2023-02-09T17:30:33.707Z,5.38
2023-02-09T17:33:03.812Z,4.35
2023-02-09T17:36:03.564Z,5.43
2023-02-09T17:38:29.280Z,5.95
2023-02-09T17:40:59.515Z,5.60
2023-02-09T17:43:28.248Z,5.20
2023-02-09T17:45:56.431Z,4.38
2023-02-09T17:48:25.052Z,3.33
2023-02-09T17:50:57.975Z,5.78
2023-02-09T17:53:33.020Z,2.80
2023-02-09T17:56:02.790Z,5.25
2023-02-09T17:58:30.957Z,2.55
2023-02-09T18:00:59.133Z,5.22
2023-02-09T18:03:27.313Z,2.42
2023-02-09T18:05:58.819Z,6.13
2023-02-09T18:08:28.516Z,3.72
2023-02-09T18:10:59.071Z,4.80
2023-02-09T18:13:27.694Z,3.10
2023-02-09T18:15:56.560Z,3.78
2023-02-09T18:18:24.974Z,4.97
2023-02-09T18:20:53.078Z,4.22
2023-02-09T18:23:23.267Z,3.95
2023-02-09T18:25:52.819Z,5.15
2023-02-09T18:28:21.461Z,2.63
2023-02-09T18:30:49.658Z,5.55
2023-02-09T18:33:17.887Z,4.88
2023-02-09T18:35:46.820Z,6.75
2023-02-09T18:38:16.124Z,4.43
2023-02-09T18:40:44.340Z,5.07
2023-02-09T18:43:15.841Z,5.40
2023-02-09T18:45:44.367Z,5.88
2023-02-09T18:48:12.843Z,4.88
2023-02-09T18:50:41.604Z,4.70
2023-02-09T18:53:11.770Z,3.92
2023-02-09T18:55:39.931Z,5.72
2023-02-09T18:58:09.476Z,2.28
2023-02-09T19:00:39.069Z,4.53
2023-02-09T19:03:07.224Z,6.13
2023-02-09T19:05:35.888Z,2.53
2023-02-09T19:08:04.248Z,4.78
2023-02-09T19:10:33.289Z,5.45
2023-02-09T19:13:03.067Z,5.15
2023-02-09T19:15:32.792Z,4.68
2023-02-09T19:18:02.374Z,4.38
2023-02-09T19:20:31.804Z,6.10
2023-02-09T19:23:00.247Z,6.35
2023-02-09T19:25:30.022Z,4.15
2023-02-09T19:27:58.286Z,4.82
2023-02-09T19:30:27.481Z,3.92
2023-02-09T19:32:57.697Z,3.88
2023-02-09T19:35:29.331Z,3.72
2023-02-09T19:37:59.150Z,2.22
2023-02-09T19:40:36.307Z,4.43
2023-02-09T19:43:05.972Z,5.82
2023-02-09T19:45:37.844Z,6.07
2023-02-09T19:48:06.942Z,5.53
2023-02-09T19:50:38.075Z,5.18
2023-02-09T19:53:07.359Z,4.18
2023-02-09T19:55:35.661Z,6.60
2023-02-09T19:58:04.422Z,4.57
2023-02-09T20:00:33.185Z,4.47
2023-02-09T20:03:01.833Z,5.60
2023-02-09T20:05:30.319Z,5.45
2023-02-09T20:07:59.938Z,4.18
2023-02-09T20:10:28.112Z,4.20
2023-02-09T20:12:56.230Z,3.13
2023-02-09T20:15:24.314Z,5.28
2023-02-09T20:17:52.525Z,4.20
2023-02-09T20:20:20.833Z,6.07
2023-02-09T20:22:51.201Z,6.20
2023-02-09T20:25:20.788Z,2.90
2023-02-09T20:27:50.799Z,3.22
2023-02-09T20:30:19.554Z,5.05
2023-02-09T20:32:47.714Z,3.63
2023-02-09T20:35:15.909Z,5.60
2023-02-09T20:37:44.572Z,4.72
2023-02-09T20:40:13.876Z,6.22
2023-02-09T20:43:00.993Z,5.03
2023-02-09T20:45:46.865Z,4.47
2023-02-09T20:48:14.995Z,5.60
2023-02-09T20:50:45.327Z,6.38
2023-02-09T20:53:13.922Z,5.75
2023-02-09T20:55:42.913Z,3.30
2023-02-09T20:58:13.714Z,5.45
2023-02-09T21:00:43.042Z,5.97
2023-02-09T21:03:11.563Z,2.83
2023-02-09T21:05:40.044Z,4.63
2023-02-09T21:08:09.631Z,3.35
2023-02-09T21:10:38.598Z,2.83
2023-02-09T21:13:08.082Z,5.28
2023-02-09T21:15:41.093Z,3.88
2023-02-09T21:18:09.291Z,5.70
2023-02-09T21:20:37.423Z,5.07
2023-02-09T21:23:05.873Z,7.00
2023-02-09T21:25:33.965Z,5.05
2023-02-09T21:28:02.601Z,6.07
2023-02-09T21:30:31.028Z,6.18
2023-02-09T21:33:01.149Z,4.85
2023-02-09T21:35:29.689Z,6.38
2023-02-09T21:37:58.321Z,4.70
2023-02-09T21:40:26.403Z,4.82
2023-02-09T21:42:54.782Z,6.05
2023-02-09T21:45:22.867Z,4.35
2023-02-09T21:47:50.971Z,3.75
2023-02-09T21:50:21.260Z,4.85
2023-02-09T21:52:50.521Z,6.05
2023-02-09T21:55:18.771Z,6.60
2023-02-09T21:57:46.860Z,5.25
2023-02-09T22:00:16.104Z,4.95
2023-02-09T22:02:44.887Z,5.75
2023-02-09T22:05:13.449Z,5.78
2023-02-09T22:07:45.597Z,7.00
2023-02-09T22:10:14.091Z,5.65
2023-02-09T22:12:42.195Z,5.97
2023-02-09T22:15:11.608Z,5.55
2023-02-09T22:17:40.545Z,6.25
2023-02-09T22:20:10.418Z,5.68
2023-02-09T22:22:39.883Z,5.32
2023-02-09T22:25:09.951Z,5.95
2023-02-09T22:27:38.094Z,6.13
2023-02-09T22:30:06.683Z,5.97
2023-02-09T22:32:35.051Z,6.25
2023-02-09T22:35:03.170Z,4.10
2023-02-09T22:37:31.382Z,5.68
2023-02-09T22:39:59.496Z,3.63
2023-02-09T22:42:29.029Z,6.65
2023-02-09T22:44:57.136Z,6.05
2023-02-09T22:47:25.317Z,5.88
2023-02-09T22:49:53.710Z,6.05
2023-02-09T22:52:21.865Z,6.10
2023-02-09T22:54:50.299Z,5.82
2023-02-09T22:57:18.417Z,4.47
2023-02-09T22:59:47.867Z,7.28
2023-02-09T23:02:16.701Z,5.68
2023-02-09T23:04:44.782Z,6.22
2023-02-09T23:07:12.914Z,6.90
2023-02-09T23:09:41.363Z,7.35
2023-02-09T23:12:09.767Z,7.63
2023-02-09T23:14:38.294Z,6.55
2023-02-09T23:17:07.898Z,7.45
2023-02-09T23:19:36.016Z,6.72
2023-02-09T23:22:04.134Z,7.93
2023-02-09T23:24:32.515Z,4.40
2023-02-09T23:27:00.595Z,5.80
2023-02-09T23:29:30.614Z,7.10
2023-02-09T23:31:59.333Z,7.85
2023-02-09T23:34:28.831Z,9.18
2023-02-09T23:37:04.979Z,5.47
2023-02-09T23:39:41.500Z,9.18
2023-02-09T23:42:09.591Z,8.38
2023-02-09T23:44:37.695Z,8.80
2023-02-09T23:47:06.188Z,5.50
2023-02-09T23:49:35.720Z,9.57
2023-02-09T23:52:03.827Z,7.82
2023-02-09T23:54:31.951Z,10.13
2023-02-09T23:57:00.114Z,10.48
2023-02-09T23:59:28.280Z,9.35
